Time;durP1;ratioP1;P1;durP2;ratioP2;P2;SDS_P1;SDS_P2;PMS_P1;PMS_P2;Temp;Humidity;BMP_temperature;BMP_pressure;BME280_temperature;BME280_humidity;BME280_pressure;Samples;Min_cycle;Max_cycle;Signal;HPM_P1;HPM_P2
2021/06/30 00:01:16;;;;;;;7.68;6.20;;;23.10;62.00;;;;;;4945062;29;20158;-81
2021/06/30 00:03:46;;;;;;;6.57;5.70;;;23.00;62.00;;;;;;4945117;29;20617;-81
2021/06/30 00:06:12;;;;;;;7.75;6.20;;;23.10;62.00;;;;;;4881256;29;20218;-81
2021/06/30 00:08:38;;;;;;;8.10;6.55;;;23.00;62.00;;;;;;4929043;29;20181;-85
2021/06/30 00:11:04;;;;;;;7.70;6.30;;;23.00;62.00;;;;;;4928524;29;20254;-82
2021/06/30 00:13:30;;;;;;;7.13;5.85;;;23.00;62.10;;;;;;4928531;29;20201;-83
2021/06/30 00:15:57;;;;;;;8.02;6.47;;;23.10;62.20;;;;;;4944494;29;20177;-81
2021/06/30 00:18:23;;;;;;;7.18;6.03;;;23.10;62.20;;;;;;4945428;29;20214;-81
2021/06/30 00:20:50;;;;;;;6.85;5.95;;;23.00;62.10;;;;;;4929308;29;20172;-83
2021/06/30 00:23:21;;;;;;;6.97;6.15;;;23.00;62.10;;;;;;4945200;29;20162;-81
2021/06/30 00:25:51;;;;;;;7.40;6.05;;;23.00;62.10;;;;;;4912441;29;20196;-81
2021/06/30 00:28:17;;;;;;;7.28;5.95;;;23.10;62.30;;;;;;4928432;29;20194;-82
2021/06/30 00:30:43;;;;;;;6.57;5.72;;;23.00;62.20;;;;;;4945166;29;20251;-81
2021/06/30 00:33:09;;;;;;;6.93;5.75;;;23.00;62.30;;;;;;4928959;29;20206;-81
2021/06/30 00:35:35;;;;;;;7.07;5.72;;;23.00;62.30;;;;;;4928673;29;20165;-82
2021/06/30 00:38:01;;;;;;;6.60;5.82;;;23.00;62.30;;;;;;4944764;29;20170;-83
2021/06/30 00:40:27;;;;;;;7.55;6.50;;;23.00;62.40;;;;;;4929515;29;20598;-82
2021/06/30 00:42:53;;;;;;;7.15;5.80;;;23.00;62.40;;;;;;4928811;29;20173;-84
2021/06/30 00:45:19;;;;;;;7.55;6.40;;;23.00;62.40;;;;;;4945676;29;20162;-82
2021/06/30 00:47:52;;;;;;;6.63;5.88;;;23.00;62.40;;;;;;4944602;29;20173;-81
2021/06/30 00:50:25;;;;;;;6.70;5.90;;;22.90;62.40;;;;;;4881448;29;20209;-82
2021/06/30 00:52:51;;;;;;;7.63;6.18;;;23.00;62.40;;;;;;4896038;29;20182;-82
2021/06/30 00:55:17;;;;;;;7.28;6.25;;;23.00;62.40;;;;;;4943403;29;20189;-81
2021/06/30 00:57:44;;;;;;;7.50;6.25;;;22.90;62.40;;;;;;4943614;29;20154;-83
2021/06/30 01:00:14;;;;;;;7.15;5.97;;;23.00;62.50;;;;;;4945074;29;20158;-83
2021/06/30 01:02:40;;;;;;;6.90;5.70;;;23.00;62.50;;;;;;4895962;29;20237;-82
2021/06/30 01:05:07;;;;;;;7.53;5.85;;;23.00;62.50;;;;;;4943913;29;20164;-84
2021/06/30 01:07:33;;;;;;;6.85;5.78;;;23.00;62.50;;;;;;4928741;29;20193;-81
2021/06/30 01:09:59;;;;;;;7.10;5.75;;;22.90;62.40;;;;;;4943941;29;20174;-81
2021/06/30 01:12:25;;;;;;;7.13;6.05;;;22.90;62.50;;;;;;4944469;29;20158;-83
2021/06/30 01:14:50;;;;;;;7.68;6.43;;;22.90;62.60;;;;;;4927622;29;20194;-85
2021/06/30 01:17:16;;;;;;;7.03;6.18;;;22.90;62.50;;;;;;4945944;29;20210;-81
2021/06/30 01:19:46;;;;;;;7.65;6.43;;;22.90;62.50;;;;;;4948588;29;20637;-81
2021/06/30 01:22:12;;;;;;;8.73;6.70;;;22.90;62.50;;;;;;4931303;29;20182;-81
2021/06/30 01:24:39;;;;;;;7.30;6.03;;;22.90;62.50;;;;;;4948469;29;20209;-83
2021/06/30 01:27:09;;;;;;;7.57;6.15;;;22.90;62.50;;;;;;4949154;29;20166;-82
2021/06/30 01:29:40;;;;;;;7.30;5.90;;;23.00;62.70;;;;;;4932229;29;20676;-83
2021/06/30 01:32:06;;;;;;;7.60;6.40;;;23.00;62.60;;;;;;4915820;29;20257;-82
2021/06/30 01:34:32;;;;;;;7.15;5.88;;;23.00;62.60;;;;;;4947683;29;20647;-81
2021/06/30 01:36:58;;;;;;;7.10;5.97;;;23.00;62.70;;;;;;4947772;29;20166;-81
2021/06/30 01:39:32;;;;;;;7.25;5.97;;;22.90;62.70;;;;;;4948189;29;20159;-82
2021/06/30 01:42:03;;;;;;;7.38;5.93;;;22.90;62.70;;;;;;4899673;29;20190;-83
2021/06/30 01:44:35;;;;;;;7.47;6.43;;;23.00;62.70;;;;;;4899583;29;20194;-83
2021/06/30 01:47:01;;;;;;;7.32;6.03;;;22.90;63.60;;;;;;4914666;29;20323;-81
2021/06/30 01:49:32;;;;;;;7.25;5.68;;;22.90;62.70;;;;;;4946985;29;20189;-81
2021/06/30 01:51:58;;;;;;;7.55;6.18;;;22.90;62.70;;;;;;4899038;29;20270;-83
2021/06/30 01:54:27;;;;;;;6.20;5.60;;;22.90;62.70;;;;;;4931405;29;20598;-81
2021/06/30 01:56:56;;;;;;;7.38;5.93;;;22.90;62.70;;;;;;4899210;29;20190;-81
2021/06/30 01:59:25;;;;;;;7.38;6.05;;;22.90;62.70;;;;;;4947963;29;20166;-81
2021/06/30 02:01:51;;;;;;;7.07;5.97;;;22.90;62.80;;;;;;4899116;29;20531;-82
2021/06/30 02:04:21;;;;;;;7.03;5.72;;;22.90;62.80;;;;;;4947009;29;20190;-82
2021/06/30 02:06:47;;;;;;;7.47;5.93;;;22.90;62.70;;;;;;4915275;29;20265;-83
2021/06/30 02:09:14;;;;;;;7.00;5.80;;;22.90;62.70;;;;;;4947165;29;20189;-82
2021/06/30 02:11:44;;;;;;;7.35;6.00;;;22.90;62.70;;;;;;4948396;29;20178;-83
2021/06/30 02:14:10;;;;;;;7.50;6.38;;;22.90;62.80;;;;;;4899980;29;20647;-83
2021/06/30 02:16:36;;;;;;;7.30;5.90;;;22.90;62.80;;;;;;4947410;29;20158;-81
2021/06/30 02:19:05;;;;;;;6.95;5.78;;;22.90;62.70;;;;;;4931514;29;20221;-81
2021/06/30 02:21:31;;;;;;;6.95;6.15;;;22.90;62.80;;;;;;4947413;29;20150;-83
2021/06/30 02:23:58;;;;;;;7.72;6.10;;;22.90;62.80;;;;;;4946798;29;20162;-81
2021/06/30 02:26:28;;;;;;;7.25;5.93;;;22.90;62.80;;;;;;4947090;29;20162;-81
2021/06/30 02:28:58;;;;;;;7.03;6.03;;;22.90;62.80;;;;;;4930577;29;20194;-81
2021/06/30 02:31:24;;;;;;;7.25;6.20;;;22.90;62.80;;;;;;4930312;29;20237;-83
2021/06/30 02:33:50;;;;;;;7.55;6.03;;;22.90;62.90;;;;;;4931464;29;20214;-82
2021/06/30 02:36:21;;;;;;;6.38;5.65;;;22.80;62.80;;;;;;4931047;29;20162;-81
2021/06/30 02:38:47;;;;;;;7.28;5.97;;;22.80;62.90;;;;;;4914274;29;20185;-81
2021/06/30 02:41:17;;;;;;;7.78;6.35;;;22.80;62.90;;;;;;4947219;29;20598;-81
2021/06/30 02:43:43;;;;;;;7.72;6.68;;;22.80;62.80;;;;;;4930618;29;20186;-81
2021/06/30 02:46:09;;;;;;;7.00;5.88;;;22.80;62.80;;;;;;4946893;29;20170;-81
2021/06/30 02:48:40;;;;;;;7.13;5.93;;;22.80;62.80;;;;;;4946566;29;20162;-81
2021/06/30 02:51:06;;;;;;;7.60;6.05;;;22.90;63.00;;;;;;4929365;29;20193;-82
2021/06/30 02:53:36;;;;;;;7.15;6.15;;;22.80;62.90;;;;;;4945977;29;20589;-82
2021/06/30 02:56:07;;;;;;;7.65;6.43;;;22.80;63.00;;;;;;4914400;29;20185;-81
2021/06/30 02:58:41;;;;;;;6.80;5.65;;;22.80;63.00;;;;;;4914596;29;20210;-81
2021/06/30 03:01:07;;;;;;;7.78;6.35;;;22.80;63.00;;;;;;4930362;29;20182;-82
2021/06/30 03:03:37;;;;;;;7.43;6.22;;;22.90;63.10;;;;;;4931192;29;20529;-83
2021/06/30 03:06:07;;;;;;;6.88;6.18;;;22.80;63.00;;;;;;4898890;29;20182;-81
2021/06/30 03:08:37;;;;;;;6.80;5.63;;;22.80;63.00;;;;;;4914438;29;20196;-81
2021/06/30 03:11:03;;;;;;;6.95;5.90;;;22.80;63.00;;;;;;4930152;29;20194;-81
2021/06/30 03:13:29;;;;;;;7.40;6.13;;;22.80;63.00;;;;;;4946004;29;20212;-81
2021/06/30 03:15:59;;;;;;;7.45;6.03;;;22.80;63.00;;;;;;4946646;29;20212;-81
2021/06/30 03:18:25;;;;;;;7.68;5.85;;;22.80;63.00;;;;;;4883349;29;20279;-81
2021/06/30 03:20:51;;;;;;;7.55;6.07;;;22.80;63.00;;;;;;4945739;29;20158;-83
2021/06/30 03:23:17;;;;;;;7.45;6.35;;;22.80;63.00;;;;;;4930093;29;20553;-81
2021/06/30 03:25:43;;;;;;;7.97;6.40;;;22.80;63.00;;;;;;4946279;29;20213;-83
2021/06/30 03:28:09;;;;;;;7.53;6.07;;;22.80;63.00;;;;;;4929901;29;20248;-83
2021/06/30 03:30:35;;;;;;;7.55;6.47;;;22.80;63.00;;;;;;4946209;29;20230;-83
2021/06/30 03:33:02;;;;;;;7.70;6.22;;;22.80;63.00;;;;;;4930072;29;20229;-83
2021/06/30 03:35:28;;;;;;;8.15;6.30;;;22.80;63.00;;;;;;4929689;29;20159;-81
2021/06/30 03:37:57;;;;;;;7.15;6.15;;;22.80;63.10;;;;;;4946340;29;20177;-83
2021/06/30 03:40:24;;;;;;;8.75;6.15;;;22.70;63.10;;;;;;4929348;29;20186;-81
2021/06/30 03:43:02;;;;;;;7.30;6.03;;;22.80;63.20;;;;;;4948047;29;20150;-81
2021/06/30 03:45:28;;;;;;;8.35;6.30;;;22.70;63.10;;;;;;4914646;29;20229;-81
2021/06/30 03:47:54;;;;;;;7.47;6.03;;;22.80;63.20;;;;;;4947775;29;20174;-81
2021/06/30 03:50:21;;;;;;;6.60;5.82;;;22.70;63.20;;;;;;4930268;29;20158;-81
2021/06/30 03:52:50;;;;;;;7.10;6.10;;;22.70;63.10;;;;;;4931851;29;20257;-81
2021/06/30 03:55:20;;;;;;;8.02;6.65;;;22.70;63.10;;;;;;4913788;29;20224;-82
2021/06/30 03:57:46;;;;;;;7.03;6.18;;;22.80;63.20;;;;;;4898321;29;20194;-81
2021/06/30 04:00:12;;;;;;;8.77;6.80;;;22.80;63.30;;;;;;4930787;29;20178;-81
2021/06/30 04:02:39;;;;;;;7.97;6.47;;;22.70;63.20;;;;;;4929634;29;20242;-81
2021/06/30 04:05:05;;;;;;;7.63;6.25;;;22.70;63.20;;;;;;4947926;29;20641;-82
2021/06/30 04:07:31;;;;;;;8.45;6.50;;;22.70;63.20;;;;;;4931101;29;20242;-82
2021/06/30 04:09:57;;;;;;;7.75;6.20;;;22.70;63.20;;;;;;4946601;29;20162;-82
2021/06/30 04:12:23;;;;;;;8.15;6.38;;;22.70;63.10;;;;;;4945122;29;20177;-83
2021/06/30 04:14:49;;;;;;;8.43;6.75;;;22.80;62.80;;;;;;4944374;29;20194;-81
2021/06/30 04:17:15;;;;;;;8.18;6.80;;;22.80;62.10;;;;;;4945736;29;20158;-82
2021/06/30 04:19:41;;;;;;;8.10;6.35;;;22.80;62.20;;;;;;4929242;29;20166;-81
2021/06/30 04:22:07;;;;;;;8.65;6.78;;;22.60;62.30;;;;;;4929725;29;20254;-81
2021/06/30 04:24:33;;;;;;;9.07;6.65;;;22.60;62.10;;;;;;4945443;29;20177;-81
2021/06/30 04:27:04;;;;;;;7.93;6.50;;;22.50;61.80;;;;;;4944755;29;20172;-81
2021/06/30 04:29:30;;;;;;;8.77;6.38;;;22.50;62.10;;;;;;4897318;29;20196;-82
2021/06/30 04:32:02;;;;;;;9.48;7.00;;;22.40;62.20;;;;;;4929879;29;20226;-82
2021/06/30 04:34:28;;;;;;;8.32;6.85;;;22.40;62.60;;;;;;4898684;29;20213;-81
2021/06/30 04:36:54;;;;;;;8.65;6.80;;;22.20;62.40;;;;;;4947165;29;20150;-82
2021/06/30 04:39:20;;;;;;;8.02;6.35;;;22.20;62.50;;;;;;4945957;29;20185;-81
2021/06/30 04:41:50;;;;;;;7.68;6.10;;;22.20;62.20;;;;;;4945832;29;20151;-82
2021/06/30 04:44:20;;;;;;;8.90;6.80;;;22.10;62.30;;;;;;4914150;29;20253;-81
2021/06/30 04:46:46;;;;;;;8.68;6.68;;;22.10;62.40;;;;;;4882436;29;20200;-81
2021/06/30 04:49:16;;;;;;;8.80;6.82;;;22.10;62.60;;;;;;4929644;29;20184;-80
2021/06/30 04:51:48;;;;;;;8.55;6.45;;;22.00;62.60;;;;;;4914113;29;20193;-82
2021/06/30 04:54:14;;;;;;;8.32;6.03;;;22.00;62.70;;;;;;4916483;29;20224;-82
2021/06/30 04:56:40;;;;;;;8.95;6.38;;;22.00;62.70;;;;;;4949748;29;20162;-81
2021/06/30 04:59:07;;;;;;;9.73;6.28;;;21.90;62.80;;;;;;4932629;29;20177;-82
2021/06/30 05:01:33;;;;;;;8.02;6.00;;;21.90;62.70;;;;;;4933830;29;20181;-82
2021/06/30 05:03:59;;;;;;;7.70;5.90;;;21.80;62.90;;;;;;4948156;29;20162;-80
2021/06/30 05:06:25;;;;;;;8.63;6.38;;;21.80;62.80;;;;;;4949577;29;20209;-83
2021/06/30 05:08:51;;;;;;;8.88;6.43;;;21.80;62.70;;;;;;4932719;29;20213;-81
2021/06/30 05:11:21;;;;;;;8.85;6.30;;;21.80;62.70;;;;;;4948497;29;20158;-82
2021/06/30 05:13:47;;;;;;;7.93;6.18;;;21.80;63.00;;;;;;4932585;29;20217;-81
2021/06/30 05:16:13;;;;;;;7.15;5.45;;;21.70;63.00;;;;;;4948910;29;20173;-81
2021/06/30 05:18:39;;;;;;;8.52;6.40;;;21.70;62.90;;;;;;4949300;29;20163;-84
2021/06/30 05:21:05;;;;;;;8.45;6.10;;;21.70;62.90;;;;;;4939272;29;20171;-81
2021/06/30 05:23:30;;;;;;;8.77;6.45;;;21.60;62.70;;;;;;4930116;29;20187;-81
2021/06/30 05:25:56;;;;;;;8.65;6.60;;;21.70;62.70;;;;;;4929644;29;20183;-83
2021/06/30 05:28:23;;;;;;;9.00;6.40;;;21.70;63.00;;;;;;4929635;29;20591;-83
2021/06/30 05:30:49;;;;;;;8.38;6.00;;;21.60;62.70;;;;;;4938649;29;20218;-83
2021/06/30 05:33:15;;;;;;;7.60;5.88;;;21.60;62.60;;;;;;4941345;29;20189;-82
2021/06/30 05:35:41;;;;;;;8.18;6.25;;;21.60;62.80;;;;;;4956710;29;20241;-83
2021/06/30 05:38:07;;;;;;;9.35;6.32;;;21.60;62.70;;;;;;4957604;29;20655;-82
2021/06/30 05:40:33;;;;;;;10.90;6.22;;;21.50;62.70;;;;;;4941980;29;20246;-82
2021/06/30 05:42:59;;;;;;;11.95;6.07;;;21.50;62.80;;;;;;4951863;29;20205;-83
2021/06/30 05:45:30;;;;;;;9.68;6.05;;;21.50;62.80;;;;;;4942343;29;20546;-82
2021/06/30 05:47:57;;;;;;;11.52;5.85;;;21.50;62.70;;;;;;4925565;29;20252;-81
2021/06/30 05:50:23;;;;;;;9.68;6.10;;;21.50;62.60;;;;;;4942044;29;20158;-84
2021/06/30 05:52:49;;;;;;;9.77;5.65;;;21.50;62.90;;;;;;4943308;29;20185;-81
2021/06/30 05:55:16;;;;;;;9.85;6.28;;;21.50;62.80;;;;;;4944700;29;20198;-82
2021/06/30 05:57:42;;;;;;;11.23;6.15;;;21.50;62.70;;;;;;4944524;29;20189;-85
2021/06/30 06:00:16;;;;;;;11.93;5.85;;;21.40;62.70;;;;;;4946572;29;20170;-83
2021/06/30 06:02:42;;;;;;;9.13;6.00;;;21.40;62.70;;;;;;4914296;29;20182;-85
2021/06/30 06:05:08;;;;;;;8.77;5.65;;;21.40;62.90;;;;;;4927407;29;20190;-83
2021/06/30 06:07:41;;;;;;;7.97;5.82;;;21.40;62.60;;;;;;4941814;29;20171;-84
2021/06/30 06:10:11;;;;;;;8.65;5.80;;;21.40;62.50;;;;;;4909140;29;20185;-83
2021/06/30 06:12:38;;;;;;;8.35;5.93;;;21.40;62.50;;;;;;4925178;29;20647;-85
2021/06/30 06:15:11;;;;;;;7.40;5.55;;;21.40;62.50;;;;;;4941453;29;20279;-84
2021/06/30 06:17:38;;;;;;;8.73;6.10;;;21.40;62.50;;;;;;4924345;29;20186;-86
2021/06/30 06:20:05;;;;;;;9.55;5.95;;;21.40;62.60;;;;;;4940855;29;20174;-86
2021/06/30 06:22:35;;;;;;;9.13;6.13;;;21.40;63.40;;;;;;4942286;29;20162;-83
2021/06/30 06:25:02;;;;;;;9.63;6.03;;;21.40;62.60;;;;;;4892566;29;20205;-83
2021/06/30 06:27:28;;;;;;;8.82;5.97;;;21.40;62.50;;;;;;4942941;29;20170;-83
2021/06/30 06:29:54;;;;;;;8.48;5.60;;;21.40;62.50;;;;;;4940868;29;20209;-83
2021/06/30 06:32:21;;;;;;;9.15;5.75;;;21.30;62.40;;;;;;4924057;29;20186;-84
2021/06/30 06:34:48;;;;;;;8.80;5.53;;;21.30;62.40;;;;;;4957164;29;20190;-83
2021/06/30 06:37:16;;;;;;;8.30;5.72;;;21.30;62.30;;;;;;4956682;29;20165;-82
2021/06/30 06:39:45;;;;;;;12.95;6.63;;;21.30;62.30;;;;;;4923156;29;20213;-84
2021/06/30 06:42:12;;;;;;;9.15;5.53;;;21.30;62.30;;;;;;4956001;29;20178;-83
2021/06/30 06:44:41;;;;;;;10.93;6.40;;;21.30;62.30;;;;;;4973514;28;20245;-87
2021/06/30 06:47:08;;;;;;;8.35;5.75;;;21.30;62.30;;;;;;4942338;29;20634;-86
2021/06/30 06:49:36;;;;;;;8.40;5.93;;;21.30;62.30;;;;;;4940782;29;20189;-82
2021/06/30 06:52:09;;;;;;;8.07;5.45;;;21.30;62.30;;;;;;4936906;29;20186;-83
2021/06/30 06:54:40;;;;;;;7.75;5.32;;;21.30;62.20;;;;;;4921570;29;20210;-83
2021/06/30 06:57:08;;;;;;;9.82;6.30;;;21.30;62.20;;;;;;4952613;29;20265;-83
2021/06/30 06:59:39;;;;;;;9.82;5.85;;;21.30;62.20;;;;;;4936376;29;20716;-81
2021/06/30 07:02:09;;;;;;;7.22;5.20;;;21.30;62.30;;;;;;4937102;29;20621;-82
2021/06/30 07:04:39;;;;;;;9.63;5.88;;;21.30;62.20;;;;;;4940797;29;20194;-82
2021/06/30 07:07:06;;;;;;;9.13;5.57;;;21.30;62.00;;;;;;4959273;29;20254;-81
2021/06/30 07:09:38;;;;;;;8.18;5.32;;;21.40;62.00;;;;;;4942377;29;20182;-82
2021/06/30 07:12:08;;;;;;;9.57;5.82;;;21.40;62.20;;;;;;4942989;29;20595;-83
2021/06/30 07:14:35;;;;;;;7.57;5.57;;;21.30;62.20;;;;;;4941882;29;20221;-82
2021/06/30 07:17:06;;;;;;;7.93;5.40;;;21.30;62.20;;;;;;4926547;29;20182;-83
2021/06/30 07:19:36;;;;;;;7.43;4.82;;;21.30;62.30;;;;;;4927030;29;20194;-83
2021/06/30 07:22:03;;;;;;;8.02;5.20;;;21.30;62.20;;;;;;4957797;29;20186;-82
2021/06/30 07:24:30;;;;;;;8.73;5.65;;;21.30;62.30;;;;;;4938476;29;20190;-84
2021/06/30 07:27:01;;;;;;;8.82;5.85;;;21.30;62.20;;;;;;4938687;29;20265;-81
2021/06/30 07:29:28;;;;;;;7.93;5.70;;;21.30;62.40;;;;;;4938789;29;20178;-82
2021/06/30 07:31:56;;;;;;;7.53;5.43;;;21.30;62.20;;;;;;4923236;29;20285;-83
2021/06/30 07:34:29;;;;;;;8.23;5.60;;;21.30;62.10;;;;;;4941601;29;20218;-84
2021/06/30 07:37:03;;;;;;;8.30;5.55;;;21.40;62.10;;;;;;4941260;29;20166;-84
2021/06/30 07:39:29;;;;;;;7.28;5.30;;;21.40;62.10;;;;;;4939841;29;20193;-83
2021/06/30 07:41:55;;;;;;;7.07;5.18;;;21.30;62.00;;;;;;4955879;29;20217;-85
2021/06/30 07:44:21;;;;;;;8.85;6.03;;;21.40;62.10;;;;;;4972905;28;20162;-84
2021/06/30 07:46:47;;;;;;;7.03;5.45;;;21.40;62.10;;;;;;4955648;29;20268;-82
2021/06/30 07:49:13;;;;;;;8.25;5.82;;;21.50;62.10;;;;;;4921555;29;20187;-84
2021/06/30 07:51:38;;;;;;;7.20;5.35;;;21.40;61.80;;;;;;4950350;29;20173;-83
2021/06/30 07:54:08;;;;;;;7.88;5.57;;;21.40;61.70;;;;;;4942936;29;20205;-81
2021/06/30 07:56:36;;;;;;;7.60;5.53;;;21.50;61.70;;;;;;4942595;29;20174;-84
2021/06/30 07:59:07;;;;;;;7.65;5.63;;;21.50;61.70;;;;;;4941885;29;20190;-81
2021/06/30 08:01:33;;;;;;;8.07;5.85;;;21.40;61.60;;;;;;4942735;29;20189;-79
2021/06/30 08:04:00;;;;;;;7.95;5.68;;;21.50;61.60;;;;;;4927654;29;20201;-82
2021/06/30 08:06:27;;;;;;;7.03;5.30;;;21.50;61.60;;;;;;4926500;29;20170;-83
2021/06/30 08:08:52;;;;;;;8.20;5.43;;;21.50;61.70;;;;;;4926358;29;20200;-81
2021/06/30 08:11:22;;;;;;;7.97;5.68;;;21.50;61.50;;;;;;4926230;29;20166;-82
2021/06/30 08:13:48;;;;;;;7.93;5.55;;;21.50;61.40;;;;;;4943767;29;20190;-81
2021/06/30 08:16:18;;;;;;;7.75;5.15;;;21.60;61.40;;;;;;4977243;28;20247;-82
2021/06/30 08:18:44;;;;;;;7.72;5.30;;;21.60;61.20;;;;;;4945019;29;20195;-81
2021/06/30 08:21:14;;;;;;;8.75;5.35;;;21.60;61.20;;;;;;4974972;28;20253;-82
2021/06/30 08:23:40;;;;;;;8.45;5.43;;;21.60;61.20;;;;;;4942956;29;20287;-80
2021/06/30 08:26:08;;;;;;;7.50;5.28;;;21.60;61.20;;;;;;4916905;29;20197;-78
2021/06/30 08:28:35;;;;;;;7.57;5.53;;;21.60;61.30;;;;;;4932109;29;20173;-78
2021/06/30 08:31:01;;;;;;;7.28;5.28;;;21.60;61.20;;;;;;4949019;29;20233;-78
2021/06/30 08:33:36;;;;;;;7.72;5.13;;;21.70;61.10;;;;;;4944562;29;20197;-81
2021/06/30 08:36:04;;;;;;;8.02;5.80;;;21.90;60.60;;;;;;4943283;29;20181;-79
2021/06/30 08:38:51;;;;;;;7.75;5.57;;;21.90;60.50;;;;;;4948197;29;20154;-79
2021/06/30 08:41:18;;;;;;;7.93;5.82;;;21.90;60.40;;;;;;4933143;29;20177;-78
2021/06/30 08:43:48;;;;;;;9.45;5.95;;;22.00;60.30;;;;;;4930594;29;20170;-77
2021/06/30 08:46:20;;;;;;;8.23;6.05;;;22.10;59.90;;;;;;4880705;29;20194;-78
2021/06/30 08:48:46;;;;;;;7.53;5.60;;;22.10;59.80;;;;;;4913669;29;20174;-78
2021/06/30 08:51:22;;;;;;;10.15;6.45;;;22.10;60.60;;;;;;4928674;29;20159;-78
2021/06/30 08:53:48;;;;;;;8.38;5.78;;;22.10;59.90;;;;;;4932991;29;20220;-78
2021/06/30 08:56:19;;;;;;;7.75;5.80;;;22.10;59.90;;;;;;4933306;29;20181;-79
2021/06/30 08:58:49;;;;;;;8.93;5.55;;;22.10;59.90;;;;;;4901312;29;20182;-79
2021/06/30 09:01:16;;;;;;;9.95;6.32;;;22.10;59.80;;;;;;4948142;29;20174;-79
2021/06/30 09:03:50;;;;;;;8.20;5.55;;;22.30;59.60;;;;;;4948752;29;20170;-77
2021/06/30 09:06:24;;;;;;;9.10;6.10;;;22.30;59.50;;;;;;4917957;29;20213;-78
2021/06/30 09:09:00;;;;;;;8.00;5.40;;;22.30;59.40;;;;;;4885107;29;20186;-78
2021/06/30 09:11:30;;;;;;;10.15;5.80;;;22.30;59.40;;;;;;4901155;29;20209;-77
2021/06/30 09:14:25;;;;;;;9.35;6.18;;;22.40;59.20;;;;;;4900788;29;20278;-78
2021/06/30 09:17:06;;;;;;;9.48;5.88;;;22.50;59.10;;;;;;4932805;29;20182;-79
2021/06/30 09:19:57;;;;;;;8.38;6.28;;;22.40;59.20;;;;;;4887057;29;20194;-78
2021/06/30 09:22:38;;;;;;;8.27;5.78;;;22.50;59.10;;;;;;4944984;29;20254;-80
2021/06/30 09:25:29;;;;;;;8.18;6.03;;;22.50;58.70;;;;;;4887892;29;20189;-80
2021/06/30 09:27:59;;;;;;;8.23;5.50;;;22.60;58.80;;;;;;4876432;29;20265;-80
2021/06/30 09:30:25;;;;;;;7.43;5.70;;;22.50;58.90;;;;;;4897602;29;20233;-81
2021/06/30 09:33:03;;;;;;;9.55;6.07;;;22.40;59.00;;;;;;4927496;29;20552;-81
2021/06/30 09:35:32;;;;;;;10.98;6.22;;;22.50;58.90;;;;;;4914613;29;20221;-80
2021/06/30 09:38:21;;;;;;;7.75;5.80;;;22.50;58.80;;;;;;4913574;29;20201;-79
2021/06/30 09:40:50;;;;;;;7.60;5.75;;;22.50;58.90;;;;;;4900842;29;20197;-81
2021/06/30 09:43:34;;;;;;;8.88;6.03;;;22.50;58.70;;;;;;4912989;29;20189;-80
2021/06/30 09:46:03;;;;;;;8.82;5.60;;;22.50;58.80;;;;;;4945874;29;20166;-82
2021/06/30 09:48:33;;;;;;;8.60;5.75;;;22.50;58.70;;;;;;4895424;29;20186;-83
2021/06/30 09:51:04;;;;;;;9.63;6.40;;;22.50;58.70;;;;;;4925815;28;20190;-80
2021/06/30 09:53:40;;;;;;;8.15;5.53;;;22.60;58.80;;;;;;4895772;29;20213;-81
2021/06/30 09:56:12;;;;;;;8.48;5.90;;;22.60;58.70;;;;;;4899910;29;20186;-79
2021/06/30 09:58:38;;;;;;;7.70;5.82;;;22.60;58.60;;;;;;4895887;29;20193;-81
2021/06/30 10:01:20;;;;;;;8.50;6.00;;;22.60;58.50;;;;;;4941698;29;20611;-83
2021/06/30 10:03:50;;;;;;;8.07;5.60;;;22.60;58.70;;;;;;4932361;29;20174;-83
2021/06/30 10:06:26;;;;;;;8.55;5.72;;;22.60;58.60;;;;;;4917586;29;20205;-83
2021/06/30 10:08:51;;;;;;;7.78;5.78;;;22.60;58.70;;;;;;4934143;29;20181;-81
2021/06/30 10:11:23;;;;;;;7.97;6.05;;;22.60;58.80;;;;;;4929418;29;20206;-83
2021/06/30 10:13:50;;;;;;;8.02;6.18;;;22.60;58.60;;;;;;4927977;29;20299;-81
2021/06/30 10:16:21;;;;;;;7.20;5.32;;;22.60;58.70;;;;;;4961440;29;20155;-82
2021/06/30 10:18:56;;;;;;;6.55;4.93;;;22.50;58.80;;;;;;4910929;29;20187;-82
2021/06/30 10:21:23;;;;;;;8.02;5.70;;;22.60;58.80;;;;;;4930748;29;20192;-82
2021/06/30 10:23:50;;;;;;;8.27;5.50;;;22.60;58.70;;;;;;4945553;28;20233;-80
2021/06/30 10:26:18;;;;;;;7.82;5.55;;;22.60;58.60;;;;;;4935144;29;20182;-83
2021/06/30 10:28:47;;;;;;;8.80;6.35;;;22.60;58.50;;;;;;4927647;29;20175;-85
2021/06/30 10:31:13;;;;;;;8.95;6.10;;;22.70;58.50;;;;;;4925055;29;20222;-84
2021/06/30 10:33:41;;;;;;;7.60;5.35;;;22.70;58.40;;;;;;4974265;28;20222;-84
2021/06/30 10:36:08;;;;;;;8.65;6.13;;;22.70;58.50;;;;;;4947254;29;20205;-84
2021/06/30 10:38:54;;;;;;;8.25;5.68;;;22.70;58.50;;;;;;4965766;28;20170;-82
2021/06/30 10:41:43;;;;;;;7.32;5.60;;;22.70;58.40;;;;;;4948782;29;20176;-84
2021/06/30 10:44:17;;;;;;;10.40;6.03;;;22.70;58.40;;;;;;4933714;29;20208;-83
2021/06/30 10:46:50;;;;;;;8.75;5.78;;;22.70;58.40;;;;;;4930888;29;20190;-82
2021/06/30 10:49:21;;;;;;;8.95;6.18;;;22.80;58.40;;;;;;4945871;29;20189;-79
2021/06/30 10:51:49;;;;;;;9.10;5.60;;;22.70;58.40;;;;;;4947501;29;20154;-81
2021/06/30 10:54:35;;;;;;;7.82;5.70;;;22.70;58.30;;;;;;4957676;29;20202;-82
2021/06/30 10:57:32;;;;;;;9.90;6.15;;;22.80;58.20;;;;;;4942184;29;20162;-80
2021/06/30 11:00:15;;;;;;;8.45;6.15;;;22.80;58.20;;;;;;4941250;29;20175;-81
2021/06/30 11:02:45;;;;;;;8.45;5.63;;;22.80;58.30;;;;;;4943472;29;20165;-81
2021/06/30 11:05:31;;;;;;;7.40;5.68;;;22.80;58.20;;;;;;4931699;29;20217;-78
2021/06/30 11:07:57;;;;;;;7.57;5.40;;;22.80;58.20;;;;;;4968020;28;20169;-78
2021/06/30 11:10:46;;;;;;;7.70;5.45;;;22.80;58.20;;;;;;4971221;28;20166;-81
2021/06/30 11:13:12;;;;;;;9.32;5.32;;;22.80;58.10;;;;;;4963416;28;20189;-80
2021/06/30 11:15:39;;;;;;;8.63;5.88;;;22.90;58.00;;;;;;4938985;29;20247;-80
2021/06/30 11:18:26;;;;;;;8.70;5.40;;;22.90;58.10;;;;;;4937221;29;20185;-79
2021/06/30 11:20:52;;;;;;;7.40;5.25;;;22.90;57.90;;;;;;4963117;28;20260;-78
2021/06/30 11:23:21;;;;;;;7.72;5.68;;;22.90;58.00;;;;;;4937207;29;20237;-81
2021/06/30 11:25:48;;;;;;;8.40;6.28;;;22.90;58.10;;;;;;4967902;28;20160;-81
2021/06/30 11:28:34;;;;;;;8.43;5.88;;;22.90;58.20;;;;;;4967760;28;20154;-79
2021/06/30 11:31:20;;;;;;;9.13;5.70;;;22.80;58.10;;;;;;4936598;29;20300;-80
2021/06/30 11:34:20;;;;;;;8.25;5.88;;;22.90;58.20;;;;;;4962472;28;20240;-80
2021/06/30 11:36:50;;;;;;;9.10;6.30;;;22.80;58.20;;;;;;4967801;28;20162;-82
2021/06/30 11:39:20;;;;;;;9.18;5.95;;;22.90;58.20;;;;;;4935249;29;20265;-80
2021/06/30 11:41:47;;;;;;;7.18;5.32;;;22.90;58.20;;;;;;4951317;29;20207;-78
2021/06/30 11:44:14;;;;;;;7.80;5.63;;;22.80;58.20;;;;;;4936684;29;20190;-80
2021/06/30 11:46:42;;;;;;;6.00;4.82;;;22.80;58.20;;;;;;4951577;29;20178;-81
2021/06/30 11:49:10;;;;;;;7.63;5.72;;;22.90;58.20;;;;;;4935596;29;20233;-81
2021/06/30 11:51:36;;;;;;;8.43;6.03;;;22.90;58.10;;;;;;4936748;29;20193;-80
2021/06/30 11:54:02;;;;;;;8.88;6.28;;;22.90;57.90;;;;;;4951538;29;20237;-78
2021/06/30 11:56:38;;;;;;;6.97;5.45;;;22.90;57.90;;;;;;4967541;28;20169;-81
2021/06/30 11:59:06;;;;;;;7.30;5.30;;;22.90;57.80;;;;;;4967840;28;20157;-80
2021/06/30 12:01:35;;;;;;;8.88;6.03;;;22.90;57.80;;;;;;4936364;29;20558;-78
2021/06/30 12:04:17;;;;;;;8.85;5.38;;;23.00;57.70;;;;;;4967499;28;20197;-81
2021/06/30 12:06:50;;;;;;;8.73;5.45;;;22.90;57.70;;;;;;4937852;29;20162;-79
2021/06/30 12:09:21;;;;;;;8.15;5.75;;;22.90;57.70;;;;;;4941571;29;20202;-81
2021/06/30 12:12:02;;;;;;;7.78;5.57;;;22.90;57.70;;;;;;4954421;29;20170;-81
2021/06/30 12:14:30;;;;;;;8.85;6.07;;;22.90;57.80;;;;;;4968659;28;20201;-81
2021/06/30 12:17:01;;;;;;;7.82;5.68;;;22.80;57.90;;;;;;4971773;28;20154;-78
2021/06/30 12:19:46;;;;;;;8.20;5.95;;;22.80;58.00;;;;;;4971960;28;20193;-78
2021/06/30 12:22:26;;;;;;;7.88;5.70;;;22.80;58.00;;;;;;4973383;28;20182;-82
2021/06/30 12:25:03;;;;;;;7.65;5.45;;;22.70;58.10;;;;;;4961784;29;20254;-82
2021/06/30 12:27:43;;;;;;;8.23;5.80;;;22.70;58.20;;;;;;4960495;29;20208;-82
2021/06/30 12:30:12;;;;;;;8.25;5.57;;;22.70;58.10;;;;;;4941811;29;20193;-82
2021/06/30 12:32:53;;;;;;;7.22;5.32;;;22.70;58.10;;;;;;4958854;29;20174;-83
2021/06/30 12:35:31;;;;;;;7.13;5.40;;;22.60;58.10;;;;;;4924245;29;20228;-81
2021/06/30 12:38:09;;;;;;;8.82;5.75;;;22.70;58.20;;;;;;4931978;29;20192;-82
2021/06/30 12:40:36;;;;;;;7.72;5.78;;;22.80;57.90;;;;;;4943370;29;20197;-82
2021/06/30 12:43:16;;;;;;;7.05;5.50;;;22.80;57.80;;;;;;4978486;28;20170;-82
2021/06/30 12:45:45;;;;;;;8.48;6.03;;;22.90;58.40;;;;;;4928791;29;20241;-81
2021/06/30 12:48:19;;;;;;;7.95;5.90;;;22.80;57.60;;;;;;4962991;29;20684;-83
2021/06/30 12:50:51;;;;;;;8.60;5.78;;;22.80;57.50;;;;;;4961439;29;20169;-82
2021/06/30 12:53:27;;;;;;;8.15;5.85;;;22.80;57.40;;;;;;4929852;29;20189;-81
2021/06/30 12:56:08;;;;;;;8.40;5.82;;;22.70;57.60;;;;;;4928842;29;20181;-81
2021/06/30 12:58:54;;;;;;;7.75;5.68;;;22.70;57.70;;;;;;4943518;29;20645;-82